createdAt,value
2023-05-24T00:01:13.422Z,96.97
2023-05-24T00:03:40.188Z,98.99
2023-05-24T00:06:07.300Z,99.07
2023-05-24T00:08:34.354Z,99.14
2023-05-24T00:11:01.039Z,97.06
2023-05-24T00:13:27.846Z,99.14
2023-05-24T00:15:54.528Z,99.74
2023-05-24T00:18:21.228Z,99.98
2023-05-24T00:20:48.149Z,98.15
2023-05-24T00:23:15.142Z,99.16
2023-05-24T00:25:41.771Z,96.46
2023-05-24T00:28:08.479Z,98.25
2023-05-24T00:30:35.118Z,99.45
2023-05-24T00:33:01.789Z,99.77
2023-05-24T00:35:28.486Z,99.05
2023-05-24T00:37:55.137Z,100.00
2023-05-24T00:40:21.788Z,100.00
2023-05-24T00:42:48.400Z,100.00
2023-05-24T00:45:15.081Z,99.02
2023-05-24T00:47:42.363Z,99.97
2023-05-24T00:50:10.390Z,100.00
2023-05-24T00:52:37.226Z,100.00
2023-05-24T00:55:04.268Z,100.00
2023-05-24T00:57:31.112Z,99.07
2023-05-24T00:59:57.863Z,98.39
2023-05-24T01:02:24.550Z,98.73
2023-05-24T01:04:51.417Z,100.00
2023-05-24T01:07:46.047Z,99.33
2023-05-24T01:10:12.688Z,98.05
2023-05-24T01:13:16.417Z,97.57
2023-05-24T01:15:52.330Z,98.61
2023-05-24T01:18:26.951Z,97.66
2023-05-24T01:21:11.872Z,98.00
2023-05-24T01:24:04.896Z,97.16
2023-05-24T01:27:00.971Z,99.06
2023-05-24T01:29:29.564Z,99.13
2023-05-24T01:31:57.082Z,99.26
2023-05-24T01:34:25.891Z,99.55
2023-05-24T01:36:52.908Z,100.00
2023-05-24T01:39:21.053Z,100.00
2023-05-24T01:42:10.664Z,98.34
2023-05-24T01:44:46.492Z,98.01
2023-05-24T01:47:45.430Z,95.95
2023-05-24T01:50:36.894Z,93.33
2023-05-24T01:53:09.753Z,94.92
2023-05-24T01:55:38.052Z,94.58
2023-05-24T01:58:06.667Z,94.12
2023-05-24T02:00:34.914Z,95.69
2023-05-24T02:03:02.668Z,95.74
2023-05-24T02:05:29.377Z,95.58
2023-05-24T02:07:56.263Z,94.62
2023-05-24T02:10:23.000Z,97.04
2023-05-24T02:12:49.712Z,100.00
2023-05-24T02:15:16.406Z,100.00
2023-05-24T02:17:43.116Z,98.74
2023-05-24T02:20:10.377Z,99.66
2023-05-24T02:22:37.086Z,98.80
2023-05-24T02:25:03.995Z,97.26
2023-05-24T02:27:30.959Z,98.21
2023-05-24T02:29:57.646Z,99.33
2023-05-24T02:32:24.303Z,98.24
2023-05-24T02:34:50.938Z,97.24
2023-05-24T02:37:17.589Z,98.30
2023-05-24T02:39:44.370Z,97.70
2023-05-24T02:42:11.027Z,96.93
2023-05-24T02:44:37.709Z,97.47
2023-05-24T02:47:04.653Z,97.36
2023-05-24T02:49:31.303Z,97.21
2023-05-24T02:51:57.981Z,95.72
2023-05-24T02:54:24.731Z,95.74
2023-05-24T02:56:51.347Z,96.31
2023-05-24T02:59:18.090Z,95.68
2023-05-24T03:01:44.948Z,96.29
2023-05-24T03:04:11.704Z,96.06
2023-05-24T03:06:38.443Z,97.35
2023-05-24T03:09:05.108Z,97.71
2023-05-24T03:11:31.900Z,99.90
2023-05-24T03:13:58.551Z,100.00
2023-05-24T03:16:25.281Z,100.00
2023-05-24T03:18:51.971Z,100.00
2023-05-24T03:21:18.628Z,100.00
2023-05-24T03:23:45.304Z,100.00
2023-05-24T03:26:12.061Z,100.00
2023-05-24T03:28:39.315Z,100.00
2023-05-24T03:31:06.365Z,100.00
2023-05-24T03:33:33.327Z,100.00
2023-05-24T03:36:00.014Z,100.00
2023-05-24T03:38:26.768Z,100.00
2023-05-24T03:40:53.408Z,100.00
2023-05-24T03:43:20.048Z,100.00
2023-05-24T03:45:47.147Z,100.00
2023-05-24T03:48:14.322Z,100.00
2023-05-24T03:50:41.081Z,100.00
2023-05-24T03:53:07.917Z,100.00
2023-05-24T03:55:34.573Z,100.00
2023-05-24T03:58:01.491Z,100.00
2023-05-24T04:00:28.208Z,100.00
2023-05-24T04:02:54.975Z,100.00
2023-05-24T04:05:22.242Z,100.00
2023-05-24T04:07:48.883Z,100.00
2023-05-24T04:10:15.656Z,100.00
2023-05-24T04:12:42.310Z,100.00
2023-05-24T04:15:09.441Z,100.00
2023-05-24T04:17:36.194Z,100.00
2023-05-24T04:20:02.970Z,100.00
2023-05-24T04:22:30.232Z,100.00
2023-05-24T04:24:56.939Z,100.00
2023-05-24T04:27:23.697Z,100.00
2023-05-24T04:29:50.374Z,100.00
2023-05-24T04:32:17.085Z,100.00
2023-05-24T04:34:44.730Z,100.00
2023-05-24T04:37:11.446Z,100.00
2023-05-24T04:39:38.127Z,100.00
2023-05-24T04:42:05.101Z,100.00
2023-05-24T04:44:31.748Z,100.00
2023-05-24T04:46:58.445Z,100.00
2023-05-24T04:49:25.112Z,100.00
2023-05-24T04:51:52.916Z,100.00
2023-05-24T04:54:21.338Z,100.00
2023-05-24T04:56:48.113Z,100.00
2023-05-24T04:59:15.173Z,100.00
2023-05-24T05:01:41.957Z,100.00
2023-05-24T05:04:08.834Z,100.00
2023-05-24T05:06:35.618Z,100.00
2023-05-24T05:09:02.291Z,100.00
2023-05-24T05:11:28.983Z,100.00
2023-05-24T05:13:55.645Z,100.00
2023-05-24T05:16:22.321Z,100.00
2023-05-24T05:18:49.134Z,100.00
2023-05-24T05:21:15.781Z,100.00
2023-05-24T05:23:42.465Z,100.00
2023-05-24T05:26:09.286Z,100.00
2023-05-24T05:28:35.940Z,100.00
2023-05-24T05:31:02.985Z,100.00
2023-05-24T05:33:31.819Z,100.00
2023-05-24T05:35:58.636Z,100.00
2023-05-24T05:38:25.542Z,100.00
2023-05-24T05:40:52.529Z,100.00
2023-05-24T05:43:19.290Z,100.00
2023-05-24T05:45:46.054Z,100.00
2023-05-24T05:48:12.700Z,100.00
2023-05-24T05:50:41.622Z,100.00
2023-05-24T05:53:08.561Z,100.00
2023-05-24T05:55:35.275Z,100.00
2023-05-24T05:58:01.991Z,100.00
2023-05-24T06:00:28.646Z,100.00
2023-05-24T06:02:55.485Z,100.00
2023-05-24T06:05:22.157Z,100.00
2023-05-24T06:07:48.860Z,100.00
2023-05-24T06:10:15.557Z,100.00
2023-05-24T06:12:42.172Z,100.00
2023-05-24T06:15:09.754Z,100.00
2023-05-24T06:17:37.134Z,100.00
2023-05-24T06:20:04.381Z,100.00
2023-05-24T06:22:31.125Z,100.00
2023-05-24T06:24:57.785Z,100.00
2023-05-24T06:27:24.576Z,100.00
2023-05-24T06:29:51.227Z,100.00
2023-05-24T06:32:17.892Z,100.00
2023-05-24T06:34:44.921Z,100.00
2023-05-24T06:37:11.570Z,100.00
2023-05-24T06:39:38.229Z,100.00
2023-05-24T06:42:05.244Z,100.00
2023-05-24T06:44:32.192Z,100.00
2023-05-24T06:46:59.017Z,100.00
2023-05-24T06:49:25.822Z,100.00
2023-05-24T06:51:52.491Z,100.00
2023-05-24T06:54:19.266Z,100.00
2023-05-24T06:56:46.396Z,100.00
2023-05-24T06:59:13.257Z,100.00
2023-05-24T07:01:40.514Z,100.00
2023-05-24T07:04:07.174Z,99.91
2023-05-24T07:06:33.876Z,97.51
2023-05-24T07:09:00.545Z,97.27
2023-05-24T07:11:28.124Z,96.06
2023-05-24T07:13:54.833Z,94.73
2023-05-24T07:16:21.518Z,95.96
2023-05-24T07:18:48.199Z,95.01
2023-05-24T07:21:15.167Z,93.86
2023-05-24T07:23:41.898Z,93.55
2023-05-24T07:26:08.536Z,95.34
2023-05-24T07:28:35.313Z,94.11
2023-05-24T07:31:01.952Z,95.58
2023-05-24T07:33:28.644Z,94.18
2023-05-24T07:35:55.248Z,91.83
2023-05-24T07:38:22.015Z,90.64
2023-05-24T07:40:48.661Z,87.97
2023-05-24T07:43:15.658Z,91.13
2023-05-24T07:45:42.615Z,91.35
2023-05-24T07:48:09.409Z,89.07
2023-05-24T07:50:36.128Z,90.33
2023-05-24T07:53:02.773Z,90.69
2023-05-24T07:55:29.456Z,87.28
2023-05-24T07:57:56.161Z,88.47
2023-05-24T08:00:23.144Z,85.37
2023-05-24T08:02:50.007Z,86.19
2023-05-24T08:05:16.883Z,88.26
2023-05-24T08:07:43.684Z,89.79
2023-05-24T08:10:11.109Z,86.62
2023-05-24T08:12:37.849Z,88.67
2023-05-24T08:15:05.541Z,89.45
2023-05-24T08:17:32.276Z,88.09
2023-05-24T08:19:58.963Z,88.44
2023-05-24T08:22:25.653Z,86.78
2023-05-24T08:24:52.292Z,85.08
2023-05-24T08:27:18.953Z,88.64
2023-05-24T08:29:45.692Z,87.76
2023-05-24T08:32:12.627Z,85.82
2023-05-24T08:34:39.415Z,86.22
2023-05-24T08:37:06.033Z,86.91
2023-05-24T08:39:32.704Z,86.28
2023-05-24T08:42:08.513Z,86.48
2023-05-24T08:44:48.882Z,86.78
2023-05-24T08:47:15.660Z,86.56
2023-05-24T08:49:42.623Z,86.98
2023-05-24T08:52:10.059Z,88.00
2023-05-24T08:54:37.137Z,85.39
2023-05-24T08:57:04.167Z,85.03
2023-05-24T08:59:30.919Z,84.53
2023-05-24T09:01:57.817Z,84.06
2023-05-24T09:04:27.664Z,85.36
2023-05-24T09:06:55.333Z,83.82
2023-05-24T09:09:22.494Z,84.10
2023-05-24T09:11:52.145Z,81.57
2023-05-24T09:14:19.082Z,82.56
2023-05-24T09:16:46.414Z,79.82
2023-05-24T09:19:13.304Z,78.11
2023-05-24T09:21:40.440Z,78.40
2023-05-24T09:24:11.434Z,75.59
2023-05-24T09:26:38.040Z,75.17
2023-05-24T09:29:08.937Z,78.17
2023-05-24T09:31:38.924Z,74.51
2023-05-24T09:34:10.521Z,76.53
2023-05-24T09:36:40.788Z,73.39
2023-05-24T09:39:11.636Z,72.53
2023-05-24T09:41:38.932Z,72.37
2023-05-24T09:44:06.037Z,71.26
2023-05-24T09:46:36.580Z,71.70
2023-05-24T09:49:03.298Z,73.25
2023-05-24T09:51:30.458Z,70.96
2023-05-24T09:53:58.753Z,74.65
2023-05-24T09:56:25.818Z,74.35
2023-05-24T09:58:52.824Z,72.16
2023-05-24T10:01:23.292Z,72.23
2023-05-24T10:03:55.432Z,70.39
2023-05-24T10:06:22.289Z,70.97
2023-05-24T10:08:48.944Z,74.27
2023-05-24T10:11:15.663Z,71.20
2023-05-24T10:13:43.382Z,69.94
2023-05-24T10:16:10.659Z,69.70
2023-05-24T10:18:38.207Z,70.92
2023-05-24T10:21:09.039Z,73.93
2023-05-24T10:23:38.643Z,68.20
2023-05-24T10:26:07.944Z,68.32
2023-05-24T10:28:38.649Z,69.76
2023-05-24T10:31:25.242Z,70.93
2023-05-24T10:33:55.616Z,69.45
2023-05-24T10:36:26.656Z,68.56
2023-05-24T10:38:54.286Z,70.02
2023-05-24T10:41:20.971Z,68.55
2023-05-24T10:44:00.678Z,68.29
2023-05-24T10:46:34.557Z,69.15
2023-05-24T10:49:01.717Z,67.77
2023-05-24T10:51:36.389Z,67.09
2023-05-24T10:54:25.157Z,69.85
2023-05-24T10:56:53.038Z,67.72
2023-05-24T10:59:24.237Z,68.24
2023-05-24T11:02:10.589Z,67.40
2023-05-24T11:04:43.058Z,63.52
2023-05-24T11:07:10.825Z,64.70
2023-05-24T11:09:41.403Z,62.78
2023-05-24T11:12:09.070Z,62.83
2023-05-24T11:14:39.521Z,62.96
2023-05-24T11:17:09.424Z,61.62
2023-05-24T11:19:38.556Z,63.72
2023-05-24T11:22:08.478Z,60.29
2023-05-24T11:24:35.242Z,62.49
2023-05-24T11:27:01.981Z,63.18
2023-05-24T11:29:29.834Z,61.67
2023-05-24T11:31:58.889Z,64.15
2023-05-24T11:34:25.601Z,63.98
2023-05-24T11:36:52.369Z,63.45
2023-05-24T11:39:19.290Z,62.82
2023-05-24T11:41:47.638Z,59.45
2023-05-24T11:44:17.899Z,62.81
2023-05-24T11:46:44.821Z,61.89
2023-05-24T11:49:17.735Z,58.96
2023-05-24T11:51:44.576Z,60.19
2023-05-24T11:54:11.425Z,57.71
2023-05-24T11:56:38.098Z,59.78
2023-05-24T11:59:22.507Z,62.21
2023-05-24T12:01:49.347Z,59.97
2023-05-24T12:04:16.069Z,62.03
2023-05-24T12:06:44.604Z,64.81
2023-05-24T12:09:12.654Z,60.34
2023-05-24T12:11:47.076Z,62.15
2023-05-24T12:14:14.862Z,63.96
2023-05-24T12:16:46.230Z,61.95
2023-05-24T12:19:31.572Z,60.91
2023-05-24T12:22:00.442Z,62.41
2023-05-24T12:24:28.128Z,62.18
2023-05-24T12:27:00.581Z,61.38
2023-05-24T12:29:27.502Z,59.79
2023-05-24T12:31:54.244Z,61.10
2023-05-24T12:34:21.393Z,59.04
2023-05-24T12:36:48.155Z,60.67
2023-05-24T12:39:41.049Z,61.37
2023-05-24T12:42:07.927Z,58.49
2023-05-24T12:44:36.015Z,58.74
2023-05-24T12:47:04.995Z,57.92
2023-05-24T12:49:32.270Z,57.75
2023-05-24T12:51:59.925Z,57.67
2023-05-24T12:54:28.589Z,57.44
2023-05-24T12:56:57.352Z,60.09
2023-05-24T12:59:25.471Z,59.01
2023-05-24T13:01:52.282Z,58.81
2023-05-24T13:04:20.811Z,57.60
2023-05-24T13:06:47.915Z,57.26
2023-05-24T13:09:15.072Z,58.40
2023-05-24T13:11:41.790Z,56.57
2023-05-24T13:14:08.407Z,58.60
2023-05-24T13:16:35.067Z,56.84
2023-05-24T13:19:01.940Z,55.50
2023-05-24T13:21:28.630Z,54.84
2023-05-24T13:23:55.303Z,55.80
2023-05-24T13:26:22.137Z,56.32
2023-05-24T13:29:11.811Z,57.40
2023-05-24T13:31:36.195Z,55.07
2023-05-24T13:34:02.962Z,54.41
2023-05-24T13:36:29.768Z,55.78
2023-05-24T13:39:12.811Z,55.94
2023-05-24T13:41:43.708Z,53.13
2023-05-24T13:44:11.981Z,53.66
2023-05-24T13:46:39.341Z,53.49
2023-05-24T13:49:07.100Z,50.91
2023-05-24T13:51:33.927Z,51.75
2023-05-24T13:54:00.748Z,52.20
2023-05-24T13:56:27.727Z,54.23
2023-05-24T13:58:54.370Z,53.37
2023-05-24T14:01:21.124Z,53.56
2023-05-24T14:03:47.782Z,54.15
2023-05-24T14:06:14.587Z,54.48
2023-05-24T14:08:41.453Z,52.84
2023-05-24T14:11:08.518Z,52.65
2023-05-24T14:16:06.480Z,52.45
2023-05-24T14:18:33.800Z,53.23
2023-05-24T14:21:00.526Z,53.53
2023-05-24T14:23:27.226Z,54.24
2023-05-24T14:25:53.890Z,50.81
2023-05-24T14:28:20.600Z,52.18
2023-05-24T14:30:47.303Z,54.45
2023-05-24T14:33:14.062Z,55.97
2023-05-24T14:35:41.403Z,56.65
2023-05-24T14:38:10.138Z,54.47
2023-05-24T14:40:37.713Z,54.32
2023-05-24T14:43:05.805Z,56.24
2023-05-24T14:45:33.186Z,55.46
2023-05-24T14:48:00.048Z,56.01
2023-05-24T14:50:26.993Z,57.20
2023-05-24T14:52:55.312Z,55.51
2023-05-24T14:55:22.540Z,54.00
2023-05-24T14:57:49.408Z,53.21
2023-05-24T15:00:17.544Z,55.59
2023-05-24T15:02:45.935Z,57.42
2023-05-24T15:05:12.596Z,55.26
2023-05-24T15:07:39.232Z,55.49
2023-05-24T15:10:08.125Z,56.60
2023-05-24T15:12:34.763Z,56.92
2023-05-24T15:15:01.442Z,55.83
2023-05-24T15:17:28.429Z,54.34
2023-05-24T15:19:55.417Z,55.07
2023-05-24T15:22:22.054Z,55.04
2023-05-24T15:24:51.095Z,54.73
2023-05-24T15:27:17.734Z,55.59
2023-05-24T15:29:44.701Z,56.19
2023-05-24T15:32:11.327Z,55.90
2023-05-24T15:34:37.995Z,55.55
2023-05-24T15:37:04.868Z,56.13
2023-05-24T15:39:31.520Z,56.31
2023-05-24T15:41:58.166Z,55.46
2023-05-24T15:44:24.908Z,57.30
2023-05-24T15:46:51.625Z,55.26
2023-05-24T15:49:18.398Z,56.04
2023-05-24T15:54:14.947Z,55.97
2023-05-24T15:56:41.607Z,56.25
2023-05-24T15:59:08.269Z,54.90
2023-05-24T16:01:35.335Z,56.62
2023-05-24T16:04:02.135Z,55.79
2023-05-24T16:06:28.810Z,56.04
2023-05-24T16:08:55.470Z,55.57
2023-05-24T16:11:22.191Z,54.93
2023-05-24T16:13:49.091Z,55.04
2023-05-24T16:16:15.943Z,55.23
2023-05-24T16:18:42.731Z,55.58
2023-05-24T16:21:09.369Z,54.99
2023-05-24T16:23:36.017Z,54.44
2023-05-24T16:26:02.688Z,53.96
2023-05-24T16:28:29.381Z,55.29
2023-05-24T16:30:56.245Z,56.68
2023-05-24T16:33:23.794Z,56.18
2023-05-24T16:35:53.452Z,55.58
2023-05-24T16:38:20.109Z,54.75
2023-05-24T16:40:46.770Z,54.76
2023-05-24T16:43:13.630Z,54.45
2023-05-24T16:45:40.318Z,54.87
2023-05-24T16:48:07.062Z,55.12
2023-05-24T16:50:33.850Z,54.64
2023-05-24T16:53:00.517Z,55.48
2023-05-24T16:55:28.268Z,56.23
2023-05-24T16:57:54.903Z,55.86
2023-05-24T17:00:22.042Z,54.81
2023-05-24T17:02:49.019Z,57.36
2023-05-24T17:05:15.785Z,56.63
2023-05-24T17:07:42.513Z,57.55
2023-05-24T17:10:09.326Z,57.34
2023-05-24T17:12:35.960Z,58.30
2023-05-24T17:15:02.773Z,58.76
2023-05-24T17:17:29.523Z,60.09
2023-05-24T17:19:56.243Z,60.40
2023-05-24T17:22:22.864Z,60.59
2023-05-24T17:24:49.495Z,59.77
2023-05-24T17:27:19.837Z,60.54
2023-05-24T17:29:48.613Z,60.56
2023-05-24T17:32:15.256Z,63.58
2023-05-24T17:34:41.873Z,62.74
2023-05-24T17:37:08.488Z,62.91
2023-05-24T17:39:35.218Z,64.10
2023-05-24T17:42:01.862Z,64.54
2023-05-24T17:44:28.514Z,65.06
2023-05-24T17:46:55.150Z,65.08
2023-05-24T17:49:21.805Z,63.84
2023-05-24T17:51:48.454Z,64.40
2023-05-24T17:54:15.151Z,66.63
2023-05-24T17:56:41.859Z,66.63
2023-05-24T17:59:08.524Z,67.09
2023-05-24T18:01:35.242Z,67.00
2023-05-24T18:04:01.959Z,68.27
2023-05-24T18:06:28.730Z,68.66
2023-05-24T18:08:55.519Z,70.58
2023-05-24T18:11:22.192Z,69.83
2023-05-24T18:13:48.844Z,69.00
2023-05-24T18:16:15.608Z,69.24
2023-05-24T18:18:42.235Z,70.46
2023-05-24T18:21:09.335Z,71.03
2023-05-24T18:23:36.605Z,70.87
2023-05-24T18:26:06.829Z,70.71
2023-05-24T18:28:34.236Z,71.07
2023-05-24T18:31:00.857Z,70.76
2023-05-24T18:33:27.580Z,73.11
2023-05-24T18:35:54.304Z,75.24
2023-05-24T18:38:21.133Z,74.07
2023-05-24T18:40:47.841Z,73.97
2023-05-24T18:43:14.508Z,74.97
2023-05-24T18:45:41.381Z,75.32
2023-05-24T18:48:08.263Z,74.63
2023-05-24T18:50:35.076Z,74.68
2023-05-24T18:53:01.724Z,76.63
2023-05-24T18:55:28.869Z,76.29
2023-05-24T18:57:55.588Z,75.99
2023-05-24T19:00:22.470Z,76.76
2023-05-24T19:02:49.766Z,78.99
2023-05-24T19:05:16.635Z,80.03
2023-05-24T19:07:43.417Z,78.45
2023-05-24T19:10:10.202Z,78.39
2023-05-24T19:12:36.919Z,79.40
2023-05-24T19:15:03.824Z,79.63
2023-05-24T19:17:30.501Z,79.05
2023-05-24T19:19:57.289Z,78.02
2023-05-24T19:22:24.018Z,78.77
2023-05-24T19:24:50.709Z,80.55
2023-05-24T19:27:17.474Z,80.40
2023-05-24T19:29:44.207Z,80.66
2023-05-24T19:32:11.033Z,81.17
2023-05-24T19:34:37.727Z,82.97
2023-05-24T19:37:04.698Z,82.21
2023-05-24T19:39:31.345Z,80.08
2023-05-24T19:41:57.951Z,79.82
2023-05-24T19:44:24.730Z,81.91
2023-05-24T19:46:51.556Z,81.64
2023-05-24T19:49:18.298Z,82.79
2023-05-24T19:51:45.195Z,82.84
2023-05-24T19:54:12.003Z,82.39
2023-05-24T19:56:38.637Z,81.15
2023-05-24T19:59:05.372Z,80.81
2023-05-24T20:01:32.076Z,80.87
2023-05-24T20:03:58.981Z,82.12
2023-05-24T20:06:28.500Z,82.56
2023-05-24T20:08:55.229Z,80.96
2023-05-24T20:11:21.864Z,82.11
2023-05-24T20:13:49.040Z,82.45
2023-05-24T20:16:15.739Z,82.49
2023-05-24T20:18:42.558Z,81.98
2023-05-24T20:21:09.256Z,81.04
2023-05-24T20:23:36.013Z,81.80
2023-05-24T20:26:02.807Z,83.78
2023-05-24T20:28:31.587Z,84.63
2023-05-24T20:30:59.107Z,83.84
2023-05-24T20:33:25.969Z,83.68
2023-05-24T20:35:52.703Z,85.98
2023-05-24T20:38:19.392Z,83.80
2023-05-24T20:40:46.128Z,85.36
2023-05-24T20:43:12.860Z,86.09
2023-05-24T20:45:39.595Z,85.25
2023-05-24T20:48:06.555Z,87.99
2023-05-24T20:50:33.393Z,86.57
2023-05-24T20:53:00.027Z,84.86
2023-05-24T20:55:27.213Z,86.48
2023-05-24T20:57:54.090Z,85.61
2023-05-24T21:00:20.745Z,85.19
2023-05-24T21:02:47.526Z,83.34
2023-05-24T21:05:14.415Z,83.09
2023-05-24T21:07:41.065Z,83.21
2023-05-24T21:10:08.269Z,82.74
2023-05-24T21:12:35.014Z,83.10
2023-05-24T21:15:01.662Z,82.97
2023-05-24T21:17:28.380Z,84.01
2023-05-24T21:19:55.131Z,82.47
2023-05-24T21:22:21.913Z,83.47
2023-05-24T21:24:48.549Z,85.39
2023-05-24T21:27:15.295Z,83.13
2023-05-24T21:29:41.996Z,83.15
2023-05-24T21:32:08.811Z,83.15
2023-05-24T21:34:35.566Z,82.73
2023-05-24T21:37:02.676Z,80.83
2023-05-24T21:39:29.567Z,80.14
2023-05-24T21:41:56.458Z,81.73
2023-05-24T21:44:23.126Z,81.89
2023-05-24T21:46:49.828Z,82.47
2023-05-24T21:49:16.517Z,83.46
2023-05-24T21:51:43.172Z,82.40
2023-05-24T21:54:09.934Z,81.62
2023-05-24T21:56:37.299Z,81.57
2023-05-24T21:59:03.923Z,80.97
2023-05-24T22:01:30.589Z,81.46
2023-05-24T22:03:57.711Z,82.70
2023-05-24T22:06:24.404Z,83.53
2023-05-24T22:08:51.047Z,82.30
2023-05-24T22:11:17.821Z,82.25
2023-05-24T22:13:44.458Z,82.83
2023-05-24T22:16:11.173Z,82.55
2023-05-24T22:18:37.822Z,81.41
2023-05-24T22:21:04.653Z,82.60
2023-05-24T22:23:31.440Z,83.36
2023-05-24T22:25:58.167Z,83.77
2023-05-24T22:28:24.832Z,83.88
2023-05-24T22:30:51.609Z,82.29
2023-05-24T22:33:18.225Z,86.77
2023-05-24T22:35:45.037Z,89.95
2023-05-24T22:38:12.311Z,88.12
2023-05-24T22:40:39.007Z,87.63
2023-05-24T22:43:05.655Z,88.57
2023-05-24T22:45:32.335Z,89.79
2023-05-24T22:47:59.109Z,89.92
2023-05-24T22:50:26.109Z,90.27
2023-05-24T22:52:52.802Z,89.61
2023-05-24T22:55:19.509Z,92.49
2023-05-24T22:57:46.147Z,90.57
2023-05-24T23:00:13.255Z,90.18
2023-05-24T23:02:39.967Z,89.84
2023-05-24T23:05:07.045Z,92.99
2023-05-24T23:07:33.755Z,92.60
2023-05-24T23:10:00.441Z,91.89
2023-05-24T23:12:27.149Z,93.72
2023-05-24T23:14:53.840Z,94.96
2023-05-24T23:17:20.632Z,96.52
2023-05-24T23:19:47.329Z,94.71
2023-05-24T23:22:15.097Z,92.98
2023-05-24T23:24:41.993Z,95.26
2023-05-24T23:27:09.186Z,96.98
2023-05-24T23:29:35.818Z,95.31
2023-05-24T23:32:02.441Z,95.51
2023-05-24T23:34:29.174Z,96.61
2023-05-24T23:36:55.924Z,96.07
2023-05-24T23:39:24.880Z,98.42
2023-05-24T23:41:51.590Z,97.64
2023-05-24T23:44:18.245Z,97.25
2023-05-24T23:46:45.064Z,97.11
2023-05-24T23:49:11.734Z,97.48
2023-05-24T23:51:38.413Z,97.27
2023-05-24T23:54:05.209Z,97.07
2023-05-24T23:56:31.840Z,96.28
2023-05-24T23:58:59.337Z,96.19
